Hlavní strana
METAR-TAF:

METAR-TAF

Letiště :

Bari, Itálie

zeměpisná šířka: 41-08N, zeměpisná délka: 016-47E, výška: 34 m

Aktuální stav počasí

Zpráva byla vytvořena před 18 minutami, v 00:50 UTC
Západní vítr 8 kt
Teplota 10°C
Vlhkost vzduchu 87%
Tlak 1025 hPa
Viditelnost 10 km a více
Žádná oblačnost pod 1500 m, nevyskytují se cumulonimby.

METAR: LIBD 200050Z 27008KT CAVOK 10/08 Q1025

Čas: 03:08 (01:08 UTC)

Předpověď počasí

Zpráva byla vytvořena před 2 hodinami a 8 minutami, v 23:00 UTC
Předpověď platná od 20 v 00 UTC do 20 v 24 UTC
vítr z různých směrů 5 kt
Viditelnost 10 km a více
Žádná oblačnost pod 1500 m, nevyskytují se cumulonimby.
Změna
od 20 v 08 UTC do 20 v 10 UTC
Severoseverovýchodní vítr 12 kt
Změna
od 20 v 16 UTC do 20 v 18 UTC
vítr z různých směrů 4 kt

TAF: LIBD 192300Z 2000/2024 VRB05KT CAVOK BECMG 2008/2010 03012KT BECMG 2016/2018 VRB04KT

Stav a předpovědi počasí z více než 4 000 letišť (zprávy METAR a TAF).

Červené a žluté tečky na mapě představují dostupné meteorologické stanice.

Když kurzor umístíte na tečku, zobrazí se název stanice.

Pak kliknutím zobrazíte stav a předpověď počasí.

Chcete-li změnit mapu, kliknutím na zelené tlačítko se znaménkem +mapu přiblížíte, kliknutím na zelené tlačítko se znaménkem – mapu oddálíte a kliknutím na zelené šipky přejdete na sousední mapy.


METAR-TAF: